sensor_id;sensor_type;location;lat;lon;timestamp;P1;durP1;ratioP1;P2;durP2;ratioP2
13051;SDS011;6592;47.484;9.726;2024-01-25T00:00:58;0.98;;;0.30;;
13051;SDS011;6592;47.484;9.726;2024-01-25T00:03:26;2.03;;;0.43;;
13051;SDS011;6592;47.484;9.726;2024-01-25T00:05:55;0.85;;;0.30;;
13051;SDS011;6592;47.484;9.726;2024-01-25T00:08:24;0.50;;;0.30;;
13051;SDS011;6592;47.484;9.726;2024-01-25T00:10:53;0.77;;;0.40;;
13051;SDS011;6592;47.484;9.726;2024-01-25T00:13:21;0.90;;;0.30;;
13051;SDS011;6592;47.484;9.726;2024-01-25T00:15:49;1.13;;;0.40;;
13051;SDS011;6592;47.484;9.726;2024-01-25T00:18:17;0.55;;;0.40;;
13051;SDS011;6592;47.484;9.726;2024-01-25T00:20:46;1.10;;;0.50;;
13051;SDS011;6592;47.484;9.726;2024-01-25T00:23:15;1.85;;;0.32;;
13051;SDS011;6592;47.484;9.726;2024-01-25T00:25:44;0.75;;;0.25;;
13051;SDS011;6592;47.484;9.726;2024-01-25T00:28:13;0.90;;;0.40;;
13051;SDS011;6592;47.484;9.726;2024-01-25T00:30:41;1.35;;;0.55;;
13051;SDS011;6592;47.484;9.726;2024-01-25T00:33:09;3.15;;;0.60;;
13051;SDS011;6592;47.484;9.726;2024-01-25T00:35:38;2.30;;;0.63;;
13051;SDS011;6592;47.484;9.726;2024-01-25T00:38:07;4.47;;;0.80;;
13051;SDS011;6592;47.484;9.726;2024-01-25T00:40:36;3.22;;;0.98;;
13051;SDS011;6592;47.484;9.726;2024-01-25T00:43:07;2.97;;;0.77;;
13051;SDS011;6592;47.484;9.726;2024-01-25T00:45:36;2.17;;;0.68;;
13051;SDS011;6592;47.484;9.726;2024-01-25T00:48:05;3.25;;;0.80;;
13051;SDS011;6592;47.484;9.726;2024-01-25T00:50:34;2.35;;;0.60;;
13051;SDS011;6592;47.484;9.726;2024-01-25T00:53:03;1.58;;;0.40;;
13051;SDS011;6592;47.484;9.726;2024-01-25T00:55:32;2.10;;;0.40;;
13051;SDS011;6592;47.484;9.726;2024-01-25T00:58:01;1.10;;;0.30;;
13051;SDS011;6592;47.484;9.726;2024-01-25T01:00:32;3.38;;;0.80;;
13051;SDS011;6592;47.484;9.726;2024-01-25T01:03:01;2.70;;;0.60;;
13051;SDS011;6592;47.484;9.726;2024-01-25T01:05:31;1.98;;;0.80;;
13051;SDS011;6592;47.484;9.726;2024-01-25T01:08:00;2.03;;;0.68;;
13051;SDS011;6592;47.484;9.726;2024-01-25T01:10:28;2.30;;;0.60;;
13051;SDS011;6592;47.484;9.726;2024-01-25T01:12:57;3.85;;;0.60;;
13051;SDS011;6592;47.484;9.726;2024-01-25T01:15:25;1.63;;;0.75;;
13051;SDS011;6592;47.484;9.726;2024-01-25T01:17:55;3.22;;;0.63;;
13051;SDS011;6592;47.484;9.726;2024-01-25T01:20:23;6.15;;;0.73;;
13051;SDS011;6592;47.484;9.726;2024-01-25T01:22:51;1.63;;;0.60;;
13051;SDS011;6592;47.484;9.726;2024-01-25T01:25:20;2.67;;;0.80;;
13051;SDS011;6592;47.484;9.726;2024-01-25T01:27:49;1.30;;;0.60;;
13051;SDS011;6592;47.484;9.726;2024-01-25T01:30:17;2.88;;;0.80;;
13051;SDS011;6592;47.484;9.726;2024-01-25T01:32:45;2.75;;;0.57;;
13051;SDS011;6592;47.484;9.726;2024-01-25T01:35:15;2.50;;;0.57;;
13051;SDS011;6592;47.484;9.726;2024-01-25T01:37:44;3.05;;;0.50;;
13051;SDS011;6592;47.484;9.726;2024-01-25T01:40:12;1.27;;;0.50;;
13051;SDS011;6592;47.484;9.726;2024-01-25T01:42:41;1.50;;;0.52;;
13051;SDS011;6592;47.484;9.726;2024-01-25T01:45:09;1.95;;;0.50;;
13051;SDS011;6592;47.484;9.726;2024-01-25T01:47:39;0.75;;;0.40;;
13051;SDS011;6592;47.484;9.726;2024-01-25T01:50:08;1.08;;;0.38;;
13051;SDS011;6592;47.484;9.726;2024-01-25T01:52:39;2.22;;;0.50;;
13051;SDS011;6592;47.484;9.726;2024-01-25T01:55:08;1.42;;;0.50;;
13051;SDS011;6592;47.484;9.726;2024-01-25T01:57:36;2.95;;;0.50;;
13051;SDS011;6592;47.484;9.726;2024-01-25T02:00:06;2.17;;;0.52;;
13051;SDS011;6592;47.484;9.726;2024-01-25T02:02:37;1.83;;;0.52;;
13051;SDS011;6592;47.484;9.726;2024-01-25T02:05:05;1.77;;;0.40;;
13051;SDS011;6592;47.484;9.726;2024-01-25T02:07:34;1.48;;;0.38;;
13051;SDS011;6592;47.484;9.726;2024-01-25T02:10:05;4.43;;;0.52;;
13051;SDS011;6592;47.484;9.726;2024-01-25T02:12:34;2.35;;;0.45;;
13051;SDS011;6592;47.484;9.726;2024-01-25T02:15:02;2.13;;;0.70;;
13051;SDS011;6592;47.484;9.726;2024-01-25T02:17:31;2.80;;;0.47;;
13051;SDS011;6592;47.484;9.726;2024-01-25T02:19:59;1.75;;;0.25;;
13051;SDS011;6592;47.484;9.726;2024-01-25T02:22:31;2.17;;;0.50;;
13051;SDS011;6592;47.484;9.726;2024-01-25T02:25:00;1.60;;;0.43;;
13051;SDS011;6592;47.484;9.726;2024-01-25T02:27:29;3.47;;;0.70;;
13051;SDS011;6592;47.484;9.726;2024-01-25T02:29:57;3.63;;;0.60;;
13051;SDS011;6592;47.484;9.726;2024-01-25T02:32:26;2.58;;;0.40;;
13051;SDS011;6592;47.484;9.726;2024-01-25T02:34:54;2.78;;;0.60;;
13051;SDS011;6592;47.484;9.726;2024-01-25T02:37:22;2.92;;;0.40;;
13051;SDS011;6592;47.484;9.726;2024-01-25T02:39:52;2.10;;;0.45;;
13051;SDS011;6592;47.484;9.726;2024-01-25T02:42:21;0.93;;;0.38;;
13051;SDS011;6592;47.484;9.726;2024-01-25T02:44:49;3.25;;;0.50;;
13051;SDS011;6592;47.484;9.726;2024-01-25T02:47:17;2.95;;;0.40;;
13051;SDS011;6592;47.484;9.726;2024-01-25T02:49:45;2.00;;;0.50;;
13051;SDS011;6592;47.484;9.726;2024-01-25T02:52:14;4.07;;;0.65;;
13051;SDS011;6592;47.484;9.726;2024-01-25T02:54:42;5.13;;;0.70;;
13051;SDS011;6592;47.484;9.726;2024-01-25T02:57:12;3.90;;;0.60;;
13051;SDS011;6592;47.484;9.726;2024-01-25T02:59:40;1.40;;;0.50;;
13051;SDS011;6592;47.484;9.726;2024-01-25T03:02:08;2.08;;;0.50;;
13051;SDS011;6592;47.484;9.726;2024-01-25T03:04:37;2.35;;;0.35;;
13051;SDS011;6592;47.484;9.726;2024-01-25T03:07:05;1.73;;;0.40;;
13051;SDS011;6592;47.484;9.726;2024-01-25T03:09:34;2.05;;;0.40;;
13051;SDS011;6592;47.484;9.726;2024-01-25T03:12:02;1.50;;;0.40;;
13051;SDS011;6592;47.484;9.726;2024-01-25T03:14:32;2.70;;;0.60;;
13051;SDS011;6592;47.484;9.726;2024-01-25T03:17:00;1.77;;;0.50;;
13051;SDS011;6592;47.484;9.726;2024-01-25T03:19:28;3.83;;;0.75;;
13051;SDS011;6592;47.484;9.726;2024-01-25T03:21:57;5.60;;;0.57;;
13051;SDS011;6592;47.484;9.726;2024-01-25T03:24:27;2.08;;;0.50;;
13051;SDS011;6592;47.484;9.726;2024-01-25T03:26:55;4.13;;;0.57;;
13051;SDS011;6592;47.484;9.726;2024-01-25T03:29:23;3.65;;;0.70;;
13051;SDS011;6592;47.484;9.726;2024-01-25T03:31:53;2.00;;;0.50;;
13051;SDS011;6592;47.484;9.726;2024-01-25T03:34:21;3.20;;;0.45;;
13051;SDS011;6592;47.484;9.726;2024-01-25T03:36:50;2.30;;;0.60;;
13051;SDS011;6592;47.484;9.726;2024-01-25T03:39:20;2.50;;;0.70;;
13051;SDS011;6592;47.484;9.726;2024-01-25T03:41:48;2.78;;;0.50;;
13051;SDS011;6592;47.484;9.726;2024-01-25T03:44:16;3.78;;;0.50;;
13051;SDS011;6592;47.484;9.726;2024-01-25T03:46:45;3.63;;;0.45;;
13051;SDS011;6592;47.484;9.726;2024-01-25T03:49:14;3.08;;;0.50;;
13051;SDS011;6592;47.484;9.726;2024-01-25T03:51:43;3.05;;;0.47;;
13051;SDS011;6592;47.484;9.726;2024-01-25T03:54:11;2.33;;;0.60;;
13051;SDS011;6592;47.484;9.726;2024-01-25T03:56:39;0.90;;;0.38;;
13051;SDS011;6592;47.484;9.726;2024-01-25T03:59:07;2.65;;;0.47;;
13051;SDS011;6592;47.484;9.726;2024-01-25T04:01:42;2.30;;;0.55;;
13051;SDS011;6592;47.484;9.726;2024-01-25T04:04:11;3.55;;;0.63;;
13051;SDS011;6592;47.484;9.726;2024-01-25T04:06:43;3.30;;;0.47;;
13051;SDS011;6592;47.484;9.726;2024-01-25T04:09:13;2.10;;;0.43;;
13051;SDS011;6592;47.484;9.726;2024-01-25T04:11:42;4.07;;;0.60;;
13051;SDS011;6592;47.484;9.726;2024-01-25T04:14:10;1.70;;;0.40;;
13051;SDS011;6592;47.484;9.726;2024-01-25T04:16:39;6.15;;;0.60;;
13051;SDS011;6592;47.484;9.726;2024-01-25T04:19:07;1.65;;;0.45;;
13051;SDS011;6592;47.484;9.726;2024-01-25T04:21:39;3.03;;;0.75;;
13051;SDS011;6592;47.484;9.726;2024-01-25T04:24:08;3.33;;;0.75;;
13051;SDS011;6592;47.484;9.726;2024-01-25T04:26:37;3.28;;;0.77;;
13051;SDS011;6592;47.484;9.726;2024-01-25T04:29:05;3.42;;;0.60;;
13051;SDS011;6592;47.484;9.726;2024-01-25T04:31:33;3.15;;;0.70;;
13051;SDS011;6592;47.484;9.726;2024-01-25T04:34:02;2.85;;;0.60;;
13051;SDS011;6592;47.484;9.726;2024-01-25T04:36:30;2.08;;;0.57;;
13051;SDS011;6592;47.484;9.726;2024-01-25T04:38:58;1.65;;;0.47;;
13051;SDS011;6592;47.484;9.726;2024-01-25T04:41:28;2.03;;;0.68;;
13051;SDS011;6592;47.484;9.726;2024-01-25T04:43:56;3.72;;;0.70;;
13051;SDS011;6592;47.484;9.726;2024-01-25T04:46:24;4.28;;;0.68;;
13051;SDS011;6592;47.484;9.726;2024-01-25T04:48:53;4.55;;;0.85;;
13051;SDS011;6592;47.484;9.726;2024-01-25T04:51:21;3.83;;;0.70;;
13051;SDS011;6592;47.484;9.726;2024-01-25T04:53:50;2.42;;;0.90;;
13051;SDS011;6592;47.484;9.726;2024-01-25T04:56:18;1.85;;;0.60;;
13051;SDS011;6592;47.484;9.726;2024-01-25T04:58:47;2.05;;;0.60;;
13051;SDS011;6592;47.484;9.726;2024-01-25T05:01:17;1.50;;;0.60;;
13051;SDS011;6592;47.484;9.726;2024-01-25T05:03:45;3.45;;;0.80;;
13051;SDS011;6592;47.484;9.726;2024-01-25T05:06:14;1.83;;;0.60;;
13051;SDS011;6592;47.484;9.726;2024-01-25T05:08:42;1.88;;;0.60;;
13051;SDS011;6592;47.484;9.726;2024-01-25T05:11:10;2.05;;;0.45;;
13051;SDS011;6592;47.484;9.726;2024-01-25T05:13:44;1.17;;;0.40;;
13051;SDS011;6592;47.484;9.726;2024-01-25T05:16:13;1.85;;;0.60;;
13051;SDS011;6592;47.484;9.726;2024-01-25T05:18:42;3.60;;;0.77;;
13051;SDS011;6592;47.484;9.726;2024-01-25T05:21:10;1.98;;;0.60;;
13051;SDS011;6592;47.484;9.726;2024-01-25T05:23:38;1.90;;;0.43;;
13051;SDS011;6592;47.484;9.726;2024-01-25T05:26:07;2.20;;;0.57;;
13051;SDS011;6592;47.484;9.726;2024-01-25T05:28:35;1.25;;;0.60;;
13051;SDS011;6592;47.484;9.726;2024-01-25T05:31:03;3.30;;;0.60;;
13051;SDS011;6592;47.484;9.726;2024-01-25T05:33:37;3.03;;;0.70;;
13051;SDS011;6592;47.484;9.726;2024-01-25T05:36:06;2.28;;;0.60;;
13051;SDS011;6592;47.484;9.726;2024-01-25T05:38:34;2.63;;;0.60;;
13051;SDS011;6592;47.484;9.726;2024-01-25T05:41:03;2.97;;;0.65;;
13051;SDS011;6592;47.484;9.726;2024-01-25T05:43:31;3.95;;;1.00;;
13051;SDS011;6592;47.484;9.726;2024-01-25T05:46:01;2.10;;;0.60;;
13051;SDS011;6592;47.484;9.726;2024-01-25T05:48:30;2.63;;;0.73;;
13051;SDS011;6592;47.484;9.726;2024-01-25T05:51:00;4.28;;;0.60;;
13051;SDS011;6592;47.484;9.726;2024-01-25T05:53:29;1.40;;;0.50;;
13051;SDS011;6592;47.484;9.726;2024-01-25T05:55:57;2.97;;;0.50;;
13051;SDS011;6592;47.484;9.726;2024-01-25T05:58:26;3.55;;;0.50;;
13051;SDS011;6592;47.484;9.726;2024-01-25T06:00:54;3.28;;;0.30;;
13051;SDS011;6592;47.484;9.726;2024-01-25T06:03:23;3.38;;;0.52;;
13051;SDS011;6592;47.484;9.726;2024-01-25T06:05:51;1.35;;;0.30;;
13051;SDS011;6592;47.484;9.726;2024-01-25T06:08:21;3.25;;;0.80;;
13051;SDS011;6592;47.484;9.726;2024-01-25T06:10:49;3.78;;;1.10;;
13051;SDS011;6592;47.484;9.726;2024-01-25T06:13:17;4.72;;;1.20;;
13051;SDS011;6592;47.484;9.726;2024-01-25T06:15:46;5.15;;;1.40;;
13051;SDS011;6592;47.484;9.726;2024-01-25T06:18:14;6.32;;;1.50;;
13051;SDS011;6592;47.484;9.726;2024-01-25T06:20:42;4.47;;;1.33;;
13051;SDS011;6592;47.484;9.726;2024-01-25T06:23:11;5.43;;;1.10;;
13051;SDS011;6592;47.484;9.726;2024-01-25T06:25:41;3.47;;;1.00;;
13051;SDS011;6592;47.484;9.726;2024-01-25T06:28:09;4.50;;;0.90;;
13051;SDS011;6592;47.484;9.726;2024-01-25T06:30:38;2.20;;;0.60;;
13051;SDS011;6592;47.484;9.726;2024-01-25T06:33:06;2.60;;;0.50;;
13051;SDS011;6592;47.484;9.726;2024-01-25T06:35:34;3.42;;;0.65;;
13051;SDS011;6592;47.484;9.726;2024-01-25T06:38:03;3.05;;;0.70;;
13051;SDS011;6592;47.484;9.726;2024-01-25T06:40:31;2.15;;;0.50;;
13051;SDS011;6592;47.484;9.726;2024-01-25T06:43:01;2.85;;;0.43;;
13051;SDS011;6592;47.484;9.726;2024-01-25T06:45:30;2.50;;;0.73;;
13051;SDS011;6592;47.484;9.726;2024-01-25T06:47:58;2.38;;;0.60;;
13051;SDS011;6592;47.484;9.726;2024-01-25T06:50:26;2.45;;;0.57;;
13051;SDS011;6592;47.484;9.726;2024-01-25T06:52:55;3.30;;;0.80;;
13051;SDS011;6592;47.484;9.726;2024-01-25T06:55:23;5.32;;;1.20;;
13051;SDS011;6592;47.484;9.726;2024-01-25T06:57:52;2.03;;;0.70;;
13051;SDS011;6592;47.484;9.726;2024-01-25T07:00:21;2.85;;;0.45;;
13051;SDS011;6592;47.484;9.726;2024-01-25T07:02:50;1.95;;;0.70;;
13051;SDS011;6592;47.484;9.726;2024-01-25T07:05:19;1.40;;;0.70;;
13051;SDS011;6592;47.484;9.726;2024-01-25T07:07:47;1.90;;;0.73;;
13051;SDS011;6592;47.484;9.726;2024-01-25T07:10:16;2.17;;;0.80;;
13051;SDS011;6592;47.484;9.726;2024-01-25T07:12:44;4.38;;;0.95;;
13051;SDS011;6592;47.484;9.726;2024-01-25T07:15:13;2.35;;;0.57;;
13051;SDS011;6592;47.484;9.726;2024-01-25T07:17:42;4.47;;;0.50;;
13051;SDS011;6592;47.484;9.726;2024-01-25T07:20:11;1.88;;;0.57;;
13051;SDS011;6592;47.484;9.726;2024-01-25T07:22:40;1.35;;;0.40;;
13051;SDS011;6592;47.484;9.726;2024-01-25T07:25:08;3.35;;;0.70;;
13051;SDS011;6592;47.484;9.726;2024-01-25T07:27:36;1.80;;;0.55;;
13051;SDS011;6592;47.484;9.726;2024-01-25T07:30:05;1.55;;;0.43;;
13051;SDS011;6592;47.484;9.726;2024-01-25T07:32:35;2.20;;;0.47;;
13051;SDS011;6592;47.484;9.726;2024-01-25T07:35:06;3.63;;;0.50;;
13051;SDS011;6592;47.484;9.726;2024-01-25T07:37:36;2.47;;;0.57;;
13051;SDS011;6592;47.484;9.726;2024-01-25T07:40:04;1.85;;;0.40;;
13051;SDS011;6592;47.484;9.726;2024-01-25T07:42:34;2.20;;;0.50;;
13051;SDS011;6592;47.484;9.726;2024-01-25T07:45:02;2.38;;;0.60;;
13051;SDS011;6592;47.484;9.726;2024-01-25T07:47:31;5.32;;;0.73;;
13051;SDS011;6592;47.484;9.726;2024-01-25T07:50:00;3.08;;;0.68;;
13051;SDS011;6592;47.484;9.726;2024-01-25T07:52:31;3.60;;;1.70;;
13051;SDS011;6592;47.484;9.726;2024-01-25T07:54:59;5.75;;;1.75;;
13051;SDS011;6592;47.484;9.726;2024-01-25T07:59:59;4.10;;;1.10;;
13051;SDS011;6592;47.484;9.726;2024-01-25T08:02:27;6.15;;;1.90;;
13051;SDS011;6592;47.484;9.726;2024-01-25T08:04:55;5.05;;;2.00;;
13051;SDS011;6592;47.484;9.726;2024-01-25T08:07:24;3.30;;;1.50;;
13051;SDS011;6592;47.484;9.726;2024-01-25T08:09:54;6.50;;;1.90;;
13051;SDS011;6592;47.484;9.726;2024-01-25T08:12:24;5.28;;;1.80;;
13051;SDS011;6592;47.484;9.726;2024-01-25T08:14:52;6.95;;;1.98;;
13051;SDS011;6592;47.484;9.726;2024-01-25T08:17:21;4.95;;;2.08;;
13051;SDS011;6592;47.484;9.726;2024-01-25T08:19:49;7.38;;;1.90;;
13051;SDS011;6592;47.484;9.726;2024-01-25T08:22:18;5.88;;;2.53;;
13051;SDS011;6592;47.484;9.726;2024-01-25T08:24:48;6.05;;;2.95;;
13051;SDS011;6592;47.484;9.726;2024-01-25T08:27:18;7.60;;;3.85;;
13051;SDS011;6592;47.484;9.726;2024-01-25T08:29:47;8.45;;;3.67;;
13051;SDS011;6592;47.484;9.726;2024-01-25T08:32:15;7.18;;;2.30;;
13051;SDS011;6592;47.484;9.726;2024-01-25T08:34:43;4.35;;;1.92;;
13051;SDS011;6592;47.484;9.726;2024-01-25T08:37:12;7.78;;;2.60;;
13051;SDS011;6592;47.484;9.726;2024-01-25T08:39:40;6.75;;;2.90;;
13051;SDS011;6592;47.484;9.726;2024-01-25T08:42:09;6.78;;;2.55;;
13051;SDS011;6592;47.484;9.726;2024-01-25T08:44:39;4.47;;;2.00;;
13051;SDS011;6592;47.484;9.726;2024-01-25T08:47:16;5.70;;;2.17;;
13051;SDS011;6592;47.484;9.726;2024-01-25T08:49:45;5.05;;;2.20;;
13051;SDS011;6592;47.484;9.726;2024-01-25T08:52:14;7.07;;;1.35;;
13051;SDS011;6592;47.484;9.726;2024-01-25T08:54:42;3.97;;;1.25;;
13051;SDS011;6592;47.484;9.726;2024-01-25T08:57:11;4.25;;;1.00;;
13051;SDS011;6592;47.484;9.726;2024-01-25T08:59:42;4.97;;;2.42;;
13051;SDS011;6592;47.484;9.726;2024-01-25T09:02:10;7.22;;;1.63;;
13051;SDS011;6592;47.484;9.726;2024-01-25T09:04:39;5.18;;;1.20;;
13051;SDS011;6592;47.484;9.726;2024-01-25T09:07:09;4.67;;;0.70;;
13051;SDS011;6592;47.484;9.726;2024-01-25T09:09:38;2.25;;;0.90;;
13051;SDS011;6592;47.484;9.726;2024-01-25T09:12:06;4.32;;;1.23;;
13051;SDS011;6592;47.484;9.726;2024-01-25T09:14:38;4.32;;;1.23;;
13051;SDS011;6592;47.484;9.726;2024-01-25T09:17:07;4.45;;;1.80;;
13051;SDS011;6592;47.484;9.726;2024-01-25T09:19:36;7.75;;;1.90;;
13051;SDS011;6592;47.484;9.726;2024-01-25T09:22:06;6.15;;;2.50;;
13051;SDS011;6592;47.484;9.726;2024-01-25T09:24:36;4.90;;;2.30;;
13051;SDS011;6592;47.484;9.726;2024-01-25T09:27:06;6.93;;;2.80;;
13051;SDS011;6592;47.484;9.726;2024-01-25T09:29:35;4.75;;;2.30;;
13051;SDS011;6592;47.484;9.726;2024-01-25T09:32:05;5.63;;;1.88;;
13051;SDS011;6592;47.484;9.726;2024-01-25T09:34:35;4.30;;;1.42;;
13051;SDS011;6592;47.484;9.726;2024-01-25T09:37:06;3.20;;;1.10;;
13051;SDS011;6592;47.484;9.726;2024-01-25T09:39:35;2.88;;;0.95;;
13051;SDS011;6592;47.484;9.726;2024-01-25T09:42:03;2.15;;;1.20;;
13051;SDS011;6592;47.484;9.726;2024-01-25T09:44:33;2.78;;;1.13;;
13051;SDS011;6592;47.484;9.726;2024-01-25T09:47:02;4.22;;;1.20;;
13051;SDS011;6592;47.484;9.726;2024-01-25T09:49:35;3.10;;;1.10;;
13051;SDS011;6592;47.484;9.726;2024-01-25T09:52:04;3.70;;;1.40;;
13051;SDS011;6592;47.484;9.726;2024-01-25T09:54:35;5.82;;;1.60;;
13051;SDS011;6592;47.484;9.726;2024-01-25T09:57:05;7.40;;;2.58;;
13051;SDS011;6592;47.484;9.726;2024-01-25T09:59:40;7.63;;;2.42;;
13051;SDS011;6592;47.484;9.726;2024-01-25T10:02:09;7.07;;;2.53;;
13051;SDS011;6592;47.484;9.726;2024-01-25T10:04:40;6.63;;;2.40;;
13051;SDS011;6592;47.484;9.726;2024-01-25T10:07:08;5.43;;;2.22;;
13051;SDS011;6592;47.484;9.726;2024-01-25T10:09:40;10.93;;;2.95;;
13051;SDS011;6592;47.484;9.726;2024-01-25T10:12:10;5.55;;;2.20;;
13051;SDS011;6592;47.484;9.726;2024-01-25T10:14:44;6.03;;;2.15;;
13051;SDS011;6592;47.484;9.726;2024-01-25T10:17:12;7.18;;;2.83;;
13051;SDS011;6592;47.484;9.726;2024-01-25T10:19:43;6.50;;;2.88;;
13051;SDS011;6592;47.484;9.726;2024-01-25T10:22:13;6.72;;;3.00;;
13051;SDS011;6592;47.484;9.726;2024-01-25T10:24:42;7.68;;;3.13;;
13051;SDS011;6592;47.484;9.726;2024-01-25T10:27:11;3.97;;;2.10;;
13051;SDS011;6592;47.484;9.726;2024-01-25T10:29:39;4.95;;;2.17;;
13051;SDS011;6592;47.484;9.726;2024-01-25T10:32:08;6.57;;;2.30;;
13051;SDS011;6592;47.484;9.726;2024-01-25T10:34:37;7.32;;;2.65;;
13051;SDS011;6592;47.484;9.726;2024-01-25T10:37:07;7.18;;;2.85;;
13051;SDS011;6592;47.484;9.726;2024-01-25T10:39:35;8.40;;;3.30;;
13051;SDS011;6592;47.484;9.726;2024-01-25T10:42:04;8.35;;;3.72;;
13051;SDS011;6592;47.484;9.726;2024-01-25T10:44:33;9.32;;;3.70;;
13051;SDS011;6592;47.484;9.726;2024-01-25T10:47:01;7.78;;;3.63;;
13051;SDS011;6592;47.484;9.726;2024-01-25T10:49:30;10.20;;;3.97;;
13051;SDS011;6592;47.484;9.726;2024-01-25T10:51:59;10.15;;;4.47;;
13051;SDS011;6592;47.484;9.726;2024-01-25T10:54:29;10.02;;;4.38;;
13051;SDS011;6592;47.484;9.726;2024-01-25T10:56:58;8.20;;;3.88;;
13051;SDS011;6592;47.484;9.726;2024-01-25T10:59:27;9.88;;;4.40;;
13051;SDS011;6592;47.484;9.726;2024-01-25T11:01:56;8.38;;;3.83;;
13051;SDS011;6592;47.484;9.726;2024-01-25T11:04:25;8.52;;;3.97;;
13051;SDS011;6592;47.484;9.726;2024-01-25T11:06:53;8.88;;;3.50;;
13051;SDS011;6592;47.484;9.726;2024-01-25T11:09:21;6.80;;;3.40;;
13051;SDS011;6592;47.484;9.726;2024-01-25T11:11:53;6.50;;;3.10;;
13051;SDS011;6592;47.484;9.726;2024-01-25T11:14:24;8.02;;;2.88;;
13051;SDS011;6592;47.484;9.726;2024-01-25T11:16:53;7.00;;;3.03;;
13051;SDS011;6592;47.484;9.726;2024-01-25T11:19:22;6.10;;;2.58;;
13051;SDS011;6592;47.484;9.726;2024-01-25T11:21:51;5.95;;;2.30;;
13051;SDS011;6592;47.484;9.726;2024-01-25T11:24:20;4.72;;;2.22;;
13051;SDS011;6592;47.484;9.726;2024-01-25T11:26:50;4.82;;;1.98;;
13051;SDS011;6592;47.484;9.726;2024-01-25T11:29:20;5.50;;;2.45;;
13051;SDS011;6592;47.484;9.726;2024-01-25T11:31:50;26.10;;;10.30;;
13051;SDS011;6592;47.484;9.726;2024-01-25T11:34:19;6.18;;;2.72;;
13051;SDS011;6592;47.484;9.726;2024-01-25T11:36:48;4.13;;;2.10;;
13051;SDS011;6592;47.484;9.726;2024-01-25T11:39:17;3.70;;;1.67;;
13051;SDS011;6592;47.484;9.726;2024-01-25T11:41:45;6.10;;;2.47;;
13051;SDS011;6592;47.484;9.726;2024-01-25T11:44:15;5.25;;;2.30;;
13051;SDS011;6592;47.484;9.726;2024-01-25T11:46:44;5.90;;;2.60;;
13051;SDS011;6592;47.484;9.726;2024-01-25T11:49:13;5.63;;;3.15;;
13051;SDS011;6592;47.484;9.726;2024-01-25T11:51:41;6.50;;;3.17;;
13051;SDS011;6592;47.484;9.726;2024-01-25T11:54:10;5.68;;;3.00;;
13051;SDS011;6592;47.484;9.726;2024-01-25T11:56:38;5.68;;;3.20;;
13051;SDS011;6592;47.484;9.726;2024-01-25T11:59:09;7.05;;;3.20;;
13051;SDS011;6592;47.484;9.726;2024-01-25T12:01:38;4.90;;;2.80;;
13051;SDS011;6592;47.484;9.726;2024-01-25T12:04:09;7.15;;;3.20;;
13051;SDS011;6592;47.484;9.726;2024-01-25T12:06:38;6.85;;;3.50;;
13051;SDS011;6592;47.484;9.726;2024-01-25T12:09:07;5.63;;;3.22;;
13051;SDS011;6592;47.484;9.726;2024-01-25T12:11:37;5.40;;;3.15;;
13051;SDS011;6592;47.484;9.726;2024-01-25T12:14:06;6.65;;;3.33;;
13051;SDS011;6592;47.484;9.726;2024-01-25T12:16:35;5.95;;;3.38;;
13051;SDS011;6592;47.484;9.726;2024-01-25T12:19:05;7.05;;;3.83;;
13051;SDS011;6592;47.484;9.726;2024-01-25T12:21:35;5.32;;;2.97;;
13051;SDS011;6592;47.484;9.726;2024-01-25T12:24:04;6.05;;;3.20;;
13051;SDS011;6592;47.484;9.726;2024-01-25T12:26:35;7.18;;;3.20;;
13051;SDS011;6592;47.484;9.726;2024-01-25T12:29:04;3.88;;;2.50;;
13051;SDS011;6592;47.484;9.726;2024-01-25T12:31:33;5.20;;;2.55;;
13051;SDS011;6592;47.484;9.726;2024-01-25T12:34:01;4.47;;;2.53;;
13051;SDS011;6592;47.484;9.726;2024-01-25T12:36:30;3.00;;;1.50;;
13051;SDS011;6592;47.484;9.726;2024-01-25T12:39:01;4.07;;;1.40;;
13051;SDS011;6592;47.484;9.726;2024-01-25T12:41:30;5.43;;;1.10;;
13051;SDS011;6592;47.484;9.726;2024-01-25T12:43:58;3.33;;;1.10;;
13051;SDS011;6592;47.484;9.726;2024-01-25T12:46:27;2.70;;;0.90;;
13051;SDS011;6592;47.484;9.726;2024-01-25T12:48:56;2.20;;;0.60;;
13051;SDS011;6592;47.484;9.726;2024-01-25T12:51:25;1.85;;;0.80;;
13051;SDS011;6592;47.484;9.726;2024-01-25T12:53:54;1.85;;;0.68;;
13051;SDS011;6592;47.484;9.726;2024-01-25T12:56:23;2.15;;;0.90;;
13051;SDS011;6592;47.484;9.726;2024-01-25T12:58:52;1.25;;;0.50;;
13051;SDS011;6592;47.484;9.726;2024-01-25T13:01:20;1.70;;;0.60;;
13051;SDS011;6592;47.484;9.726;2024-01-25T13:03:48;2.20;;;0.98;;
13051;SDS011;6592;47.484;9.726;2024-01-25T13:06:17;1.83;;;0.60;;
13051;SDS011;6592;47.484;9.726;2024-01-25T13:08:46;2.08;;;0.75;;
13051;SDS011;6592;47.484;9.726;2024-01-25T13:11:15;2.63;;;0.90;;
13051;SDS011;6592;47.484;9.726;2024-01-25T13:13:44;1.95;;;0.65;;
13051;SDS011;6592;47.484;9.726;2024-01-25T13:16:12;2.70;;;0.70;;
13051;SDS011;6592;47.484;9.726;2024-01-25T13:18:41;1.67;;;0.50;;
13051;SDS011;6592;47.484;9.726;2024-01-25T13:21:09;1.20;;;0.50;;
13051;SDS011;6592;47.484;9.726;2024-01-25T13:23:37;1.30;;;0.50;;
13051;SDS011;6592;47.484;9.726;2024-01-25T13:26:05;4.32;;;0.77;;
13051;SDS011;6592;47.484;9.726;2024-01-25T13:28:34;3.22;;;0.60;;
13051;SDS011;6592;47.484;9.726;2024-01-25T13:31:03;1.65;;;0.40;;
13051;SDS011;6592;47.484;9.726;2024-01-25T13:33:32;1.73;;;0.50;;
13051;SDS011;6592;47.484;9.726;2024-01-25T13:36:00;1.23;;;0.50;;
13051;SDS011;6592;47.484;9.726;2024-01-25T13:38:28;1.25;;;0.50;;
13051;SDS011;6592;47.484;9.726;2024-01-25T13:40:57;1.55;;;0.47;;
13051;SDS011;6592;47.484;9.726;2024-01-25T13:43:25;1.27;;;0.52;;
13051;SDS011;6592;47.484;9.726;2024-01-25T13:45:54;3.42;;;1.10;;
13051;SDS011;6592;47.484;9.726;2024-01-25T13:48:23;1.98;;;0.80;;
13051;SDS011;6592;47.484;9.726;2024-01-25T13:50:52;4.95;;;0.80;;
13051;SDS011;6592;47.484;9.726;2024-01-25T13:53:20;2.95;;;1.10;;
13051;SDS011;6592;47.484;9.726;2024-01-25T13:55:48;2.00;;;0.90;;
13051;SDS011;6592;47.484;9.726;2024-01-25T13:58:16;2.75;;;1.20;;
13051;SDS011;6592;47.484;9.726;2024-01-25T14:00:45;2.15;;;0.95;;
13051;SDS011;6592;47.484;9.726;2024-01-25T14:03:14;1.27;;;0.50;;
13051;SDS011;6592;47.484;9.726;2024-01-25T14:05:44;1.90;;;1.00;;
13051;SDS011;6592;47.484;9.726;2024-01-25T14:08:13;0.90;;;0.50;;
13051;SDS011;6592;47.484;9.726;2024-01-25T14:10:43;1.77;;;0.65;;
13051;SDS011;6592;47.484;9.726;2024-01-25T14:13:11;1.13;;;0.40;;
13051;SDS011;6592;47.484;9.726;2024-01-25T14:15:40;0.88;;;0.50;;
13051;SDS011;6592;47.484;9.726;2024-01-25T14:18:08;1.65;;;0.70;;
13051;SDS011;6592;47.484;9.726;2024-01-25T14:20:37;0.80;;;0.30;;
13051;SDS011;6592;47.484;9.726;2024-01-25T14:23:07;1.35;;;0.60;;
13051;SDS011;6592;47.484;9.726;2024-01-25T14:25:35;1.35;;;0.40;;
13051;SDS011;6592;47.484;9.726;2024-01-25T14:28:04;1.23;;;0.50;;
13051;SDS011;6592;47.484;9.726;2024-01-25T14:30:32;1.10;;;0.35;;
13051;SDS011;6592;47.484;9.726;2024-01-25T14:33:00;1.65;;;0.50;;
13051;SDS011;6592;47.484;9.726;2024-01-25T14:35:30;2.10;;;0.55;;
13051;SDS011;6592;47.484;9.726;2024-01-25T14:37:59;1.20;;;0.50;;
13051;SDS011;6592;47.484;9.726;2024-01-25T14:40:28;1.48;;;0.68;;
13051;SDS011;6592;47.484;9.726;2024-01-25T14:43:16;1.65;;;0.80;;
13051;SDS011;6592;47.484;9.726;2024-01-25T14:45:45;4.25;;;1.77;;
13051;SDS011;6592;47.484;9.726;2024-01-25T14:48:13;2.78;;;1.40;;
13051;SDS011;6592;47.484;9.726;2024-01-25T14:50:41;1.42;;;0.80;;
13051;SDS011;6592;47.484;9.726;2024-01-25T14:53:09;2.40;;;0.90;;
13051;SDS011;6592;47.484;9.726;2024-01-25T14:55:39;3.40;;;1.25;;
13051;SDS011;6592;47.484;9.726;2024-01-25T14:58:08;4.00;;;1.60;;
13051;SDS011;6592;47.484;9.726;2024-01-25T15:00:36;3.97;;;1.40;;
13051;SDS011;6592;47.484;9.726;2024-01-25T15:03:05;3.13;;;1.00;;
13051;SDS011;6592;47.484;9.726;2024-01-25T15:05:33;3.45;;;1.52;;
13051;SDS011;6592;47.484;9.726;2024-01-25T15:08:02;5.72;;;1.70;;
13051;SDS011;6592;47.484;9.726;2024-01-25T15:10:31;4.38;;;2.70;;
13051;SDS011;6592;47.484;9.726;2024-01-25T15:13:00;3.63;;;1.40;;